首页
METAR-TAF:

METAR-TAF

机场 :

格林维尔, 阿拉巴马州, 美国

纬度: 31-50-44N, 经度: 086-36-38W, 海拔: 138米

当前天气观测

该预报发布于4分钟前的05:56 UTC
静风
温度 24°C
湿度 83%
气压 1019 hPa
能見度: 12.9公里
天空无云

METAR: KPRN 270556Z AUTO 00000KT 8SM CLR 24/21 A3008 RMK AO2 SLP178 T02440206 10333 20239 403670206 50000 $

时间: 01:00 (06:00 UTC)


TAF: 丢失

超过4000个机场的气象观测和天气预报(METAR&TAF报告)。

可查询的气象台以黄色和红色小点在地图上表示。

将鼠标移到小点上方,可查看气象台名称。

然后点击查看天气观测和预报。

如需切换地图:点击带黑十字的绿色按钮放大地图;点击带横线的绿色按钮缩小地图;或者点击绿色箭头查看邻近地区的地图。


METAR-TAF: